Allentown, Georgia
Current Conditions -  °F | °C
As of 11:15 PM on Monday 22 Dec 2014 (Local Time) from KDBN Reporting Station
Haze Haze  
Wind Chill: 44°   Ceiling: 300
Heat Index: 46°   Visibility: 1.2mi
Dew Point: 46°   Wind: 5mph
Humidity: 100%   Direction: 70°ENE
Pressure: 29.98"   Gusts: NA
Location:  32.59°N, 83.23°W
Report Text: KDBN 230415Z AUTO 07004KT 1 1/4SM BR OVC003 08/08 A2998 RMK AO2 LTG DSNT SE
Loading
Personal Weather Stations






























Interactive Weather Map New forecast layout! Learn more

10-Day Weather Forecast

Advertisements
Track Severe Weather on mobile